Time;durP1;ratioP1;P1;durP2;ratioP2;P2;SDS_P1;SDS_P2;PMS_P1;PMS_P2;Temp;Humidity;BMP_temperature;BMP_pressure;BME280_temperature;BME280_humidity;BME280_pressure;Samples;Min_cycle;Max_cycle;Signal;HPM_P1;HPM_P2
2022/01/24 00:02:28;;;;;;;8.73;4.38;;;;;;;;;;5111594;28;20381;-65
2022/01/24 00:04:54;;;;;;;13.27;5.07;;;;;;;;;;5111259;28;20039;-63
2022/01/24 00:07:22;;;;;;;9.85;4.88;;;;;;;;;;5110488;28;20034;-66
2022/01/24 00:09:49;;;;;;;7.32;3.42;;;;;;;;;;5111697;28;20024;-68
2022/01/24 00:12:43;;;;;;;3.90;2.55;;;;;;;;;;5111495;28;20020;-65
2022/01/24 00:18:04;;;;;;;5.32;2.65;;;;;;;;;;5092032;28;20109;-63
2022/01/24 00:28:27;;;;;;;4.68;2.67;;;;;;;;;;5106500;28;20122;-63
2022/01/24 00:30:54;;;;;;;7.50;3.40;;;;;;;;;;5114152;28;20110;-63
2022/01/24 00:33:20;;;;;;;6.22;3.28;;;;;;;;;;5112930;28;20040;-64
2022/01/24 00:35:47;;;;;;;4.35;2.70;;;;;;;;;;5114204;28;20172;-63
2022/01/24 00:38:14;;;;;;;5.40;3.00;;;;;;;;;;5114435;28;20082;-63
2022/01/24 00:40:42;;;;;;;4.60;2.90;;;;;;;;;;5113738;28;20059;-64
2022/01/24 00:43:23;;;;;;;4.55;2.75;;;;;;;;;;5113876;28;20044;-64
2022/01/24 00:54:01;;;;;;;4.32;2.35;;;;;;;;;;5114568;28;20038;-63
2022/01/24 00:56:27;;;;;;;4.63;2.90;;;;;;;;;;5113967;28;20028;-64
2022/01/24 00:58:52;;;;;;;5.30;2.70;;;;;;;;;;5111243;28;20020;-64
2022/01/24 01:01:19;;;;;;;6.35;2.85;;;;;;;;;;5102201;28;20446;-64
2022/01/24 01:03:45;;;;;;;6.90;3.53;;;;;;;;;;5093798;28;20111;-63
2022/01/24 01:06:11;;;;;;;4.38;2.97;;;;;;;;;;5093476;28;20119;-63
2022/01/24 01:19:40;;;;;;;9.02;4.10;;;;;;;;;;5092961;28;20111;-65
2022/01/24 01:22:06;;;;;;;7.75;4.03;;;;;;;;;;5094220;28;20035;-65
2022/01/24 01:24:38;;;;;;;6.63;3.55;;;;;;;;;;5093520;28;20383;-63
2022/01/24 01:27:10;;;;;;;7.38;3.00;;;;;;;;;;5093122;28;20032;-63
2022/01/24 01:35:11;;;;;;;9.13;3.85;;;;;;;;;;5108623;27;20051;-63
2022/01/24 01:52:16;;;;;;;12.25;5.80;;;;;;;;;;5093289;28;20120;-65
2022/01/24 01:56:40;;;;;;;8.90;4.40;;;;;;;;;;5092713;28;20039;-62
2022/01/24 01:59:06;;;;;;;8.23;4.50;;;;;;;;;;5091635;28;20035;-64
2022/01/24 02:01:32;;;;;;;10.75;4.65;;;;;;;;;;5093000;28;20032;-65
2022/01/24 02:04:02;;;;;;;10.88;4.40;;;;;;;;;;5092280;28;20020;-64
2022/01/24 02:06:30;;;;;;;10.63;4.65;;;;;;;;;;5093255;28;20054;-70
2022/01/24 02:09:07;;;;;;;14.30;7.03;;;;;;;;;;5092474;28;20024;-64
2022/01/24 02:11:33;;;;;;;8.13;4.82;;;;;;;;;;5092066;28;20036;-64
2022/01/24 02:14:05;;;;;;;5.97;3.03;;;;;;;;;;5092878;28;20033;-64
2022/01/24 02:16:42;;;;;;;6.20;3.17;;;;;;;;;;5092501;28;20036;-64
2022/01/24 02:19:25;;;;;;;7.25;3.95;;;;;;;;;;5092814;28;20032;-64
2022/01/24 02:24:38;;;;;;;10.75;4.93;;;;;;;;;;5094010;28;20035;-64
2022/01/24 02:27:04;;;;;;;11.20;4.72;;;;;;;;;;5091832;28;20020;-64
2022/01/24 02:29:47;;;;;;;8.35;4.40;;;;;;;;;;5091858;28;20040;-64
2022/01/24 02:32:13;;;;;;;9.40;5.65;;;;;;;;;;5092409;28;20032;-65
2022/01/24 02:34:42;;;;;;;10.98;4.68;;;;;;;;;;5091819;28;20105;-63
2022/01/24 02:37:13;;;;;;;9.73;4.72;;;;;;;;;;5092035;28;20067;-63
2022/01/24 02:52:58;;;;;;;9.32;3.95;;;;;;;;;;5091682;28;20093;-64
2022/01/24 02:55:24;;;;;;;8.57;4.18;;;;;;;;;;5091970;28;20028;-64
2022/01/24 02:57:50;;;;;;;7.90;4.20;;;;;;;;;;5091494;28;20823;-65
2022/01/24 03:00:16;;;;;;;9.75;3.90;;;;;;;;;;5092071;28;20016;-64
2022/01/24 03:02:41;;;;;;;11.18;5.03;;;;;;;;;;5092018;28;20036;-64
2022/01/24 03:05:08;;;;;;;8.68;4.93;;;;;;;;;;5091597;28;20020;-64
2022/01/24 03:07:34;;;;;;;8.30;4.47;;;;;;;;;;5091676;28;20035;-64
2022/01/24 03:10:08;;;;;;;9.10;4.85;;;;;;;;;;5091883;28;20028;-65
2022/01/24 03:12:43;;;;;;;10.77;4.43;;;;;;;;;;5090882;28;20059;-63
2022/01/24 03:15:10;;;;;;;8.70;4.22;;;;;;;;;;5091525;28;20490;-64
2022/01/24 03:17:37;;;;;;;9.80;4.45;;;;;;;;;;5091847;28;20024;-64
2022/01/24 03:20:04;;;;;;;9.13;4.90;;;;;;;;;;5090884;28;20032;-63
2022/01/24 03:22:31;;;;;;;7.25;3.80;;;;;;;;;;5091279;28;20040;-64
2022/01/24 03:24:57;;;;;;;7.47;4.28;;;;;;;;;;5091407;28;20486;-64
2022/01/24 03:27:24;;;;;;;7.20;3.75;;;;;;;;;;5091049;28;20023;-64
2022/01/24 03:29:50;;;;;;;10.02;4.28;;;;;;;;;;5091574;28;20043;-64
2022/01/24 03:32:16;;;;;;;7.75;4.00;;;;;;;;;;5091127;28;20356;-63
2022/01/24 03:34:43;;;;;;;10.68;5.00;;;;;;;;;;5090048;28;20088;-63
2022/01/24 03:37:09;;;;;;;10.20;4.80;;;;;;;;;;5091587;28;20479;-64
2022/01/24 03:39:35;;;;;;;7.85;4.38;;;;;;;;;;5091444;28;20048;-63
2022/01/24 03:42:01;;;;;;;8.23;4.25;;;;;;;;;;5090972;28;20393;-63
2022/01/24 03:44:28;;;;;;;7.53;4.50;;;;;;;;;;5089548;28;20545;-64
2022/01/24 03:49:48;;;;;;;6.38;3.50;;;;;;;;;;5090674;28;20060;-63
2022/01/24 03:52:16;;;;;;;8.90;4.53;;;;;;;;;;5091237;28;20024;-63
2022/01/24 03:54:43;;;;;;;14.65;5.30;;;;;;;;;;5095301;28;20050;-63
2022/01/24 03:57:11;;;;;;;11.02;4.82;;;;;;;;;;5094055;28;20024;-62
2022/01/24 03:59:37;;;;;;;9.70;4.10;;;;;;;;;;5095118;28;20024;-61
2022/01/24 04:02:04;;;;;;;5.85;4.05;;;;;;;;;;5094747;28;20509;-64
2022/01/24 04:04:30;;;;;;;10.98;4.70;;;;;;;;;;5093959;28;20085;-64
2022/01/24 04:06:56;;;;;;;10.30;4.63;;;;;;;;;;5092632;28;20036;-63
2022/01/24 04:09:22;;;;;;;10.15;4.75;;;;;;;;;;5074428;28;20422;-63
2022/01/24 04:11:52;;;;;;;7.82;4.45;;;;;;;;;;5091040;28;20089;-64
2022/01/24 04:17:07;;;;;;;8.68;4.60;;;;;;;;;;5094490;28;20032;-63
2022/01/24 04:22:30;;;;;;;9.23;4.47;;;;;;;;;;5094642;28;20032;-63
2022/01/24 04:25:02;;;;;;;8.70;4.20;;;;;;;;;;5073590;28;20098;-63
2022/01/24 04:27:29;;;;;;;9.38;4.75;;;;;;;;;;5089069;28;20533;-63
2022/01/24 04:29:55;;;;;;;12.27;5.07;;;;;;;;;;5094446;28;20032;-64
2022/01/24 04:32:22;;;;;;;10.15;5.05;;;;;;;;;;5093823;28;20044;-68
2022/01/24 04:34:49;;;;;;;11.00;5.55;;;;;;;;;;5085438;28;20075;-63
2022/01/24 04:37:15;;;;;;;14.07;5.80;;;;;;;;;;5080783;28;20044;-63
2022/01/24 04:39:43;;;;;;;10.05;5.00;;;;;;;;;;5073639;28;20031;-66
2022/01/24 04:42:15;;;;;;;9.50;5.82;;;;;;;;;;5074438;28;20480;-64
2022/01/24 04:55:11;;;;;;;8.90;4.82;;;;;;;;;;5073125;28;20105;-65
2022/01/24 04:57:37;;;;;;;9.23;5.28;;;;;;;;;;5074053;28;20012;-63
2022/01/24 05:00:08;;;;;;;7.68;4.70;;;;;;;;;;5074140;28;20379;-72
2022/01/24 05:02:34;;;;;;;10.65;5.75;;;;;;;;;;5080093;28;20100;-64
2022/01/24 05:05:00;;;;;;;12.05;5.90;;;;;;;;;;5092666;28;20475;-66
2022/01/24 05:07:26;;;;;;;17.67;6.88;;;;;;;;;;5094441;28;20446;-64
2022/01/24 05:10:07;;;;;;;19.92;7.93;;;;;;;;;;5093963;28;20077;-63
2022/01/24 05:23:41;;;;;;;10.57;5.57;;;;;;;;;;5074091;28;20111;-63
2022/01/24 05:26:08;;;;;;;13.07;6.13;;;;;;;;;;5074042;28;20032;-70
2022/01/24 05:28:35;;;;;;;25.13;7.88;;;;;;;;;;5073312;28;20036;-67
2022/01/24 05:31:01;;;;;;;16.08;6.10;;;;;;;;;;5073343;28;20040;-67
2022/01/24 05:33:29;;;;;;;13.45;7.43;;;;;;;;;;5075259;28;20115;-67
2022/01/24 05:35:55;;;;;;;9.90;5.80;;;;;;;;;;5073424;28;20043;-74
2022/01/24 05:38:22;;;;;;;14.75;6.10;;;;;;;;;;5073529;28;20016;-67
2022/01/24 05:40:49;;;;;;;17.20;8.07;;;;;;;;;;5093123;28;20436;-66
2022/01/24 05:43:15;;;;;;;15.52;7.18;;;;;;;;;;5093880;28;20024;-68
2022/01/24 05:45:44;;;;;;;23.77;8.23;;;;;;;;;;5095952;28;20387;-67
2022/01/24 05:48:09;;;;;;;16.52;7.75;;;;;;;;;;5096173;28;20020;-67
2022/01/24 05:50:35;;;;;;;14.73;6.85;;;;;;;;;;5092450;28;20048;-66
2022/01/24 05:53:01;;;;;;;13.77;7.38;;;;;;;;;;5092921;28;20028;-77
2022/01/24 05:55:27;;;;;;;15.18;7.18;;;;;;;;;;5093806;28;20463;-77
2022/01/24 05:57:53;;;;;;;17.58;7.35;;;;;;;;;;5093585;28;20016;-71
2022/01/24 06:00:20;;;;;;;34.97;8.40;;;;;;;;;;5093128;28;20032;-68
2022/01/24 06:02:46;;;;;;;17.88;9.20;;;;;;;;;;5093674;28;20024;-73
2022/01/24 06:05:12;;;;;;;25.88;13.65;;;;;;;;;;5092793;28;20039;-76
2022/01/24 06:07:38;;;;;;;19.27;9.73;;;;;;;;;;5071984;28;20028;-66
2022/01/24 06:10:05;;;;;;;19.42;10.23;;;;;;;;;;5069060;28;20444;-66
2022/01/24 06:12:31;;;;;;;19.52;10.00;;;;;;;;;;5071339;28;20119;-70
2022/01/24 06:14:57;;;;;;;20.38;9.27;;;;;;;;;;5072093;28;20103;-68
2022/01/24 06:17:23;;;;;;;17.77;8.38;;;;;;;;;;5072121;28;20025;-75
2022/01/24 06:19:48;;;;;;;31.35;11.40;;;;;;;;;;5071407;28;20124;-70
2022/01/24 06:22:14;;;;;;;26.23;11.30;;;;;;;;;;5072594;28;20131;-70
2022/01/24 06:24:40;;;;;;;34.95;11.43;;;;;;;;;;5072099;28;20037;-71
2022/01/24 06:27:06;;;;;;;28.00;11.52;;;;;;;;;;5071800;28;20400;-69
2022/01/24 06:29:32;;;;;;;22.42;10.43;;;;;;;;;;5071996;28;20071;-67
2022/01/24 06:31:58;;;;;;;23.63;10.18;;;;;;;;;;5071958;28;20055;-67
2022/01/24 06:34:24;;;;;;;49.97;17.35;;;;;;;;;;5073877;28;20122;-68
2022/01/24 06:36:49;;;;;;;38.90;13.40;;;;;;;;;;5090278;28;20024;-67
2022/01/24 06:39:15;;;;;;;37.13;13.48;;;;;;;;;;5090274;28;20077;-67
2022/01/24 06:41:43;;;;;;;27.95;10.75;;;;;;;;;;5091427;28;20084;-67
2022/01/24 06:44:09;;;;;;;31.20;10.38;;;;;;;;;;5091631;28;20043;-69
2022/01/24 06:46:35;;;;;;;22.27;9.27;;;;;;;;;;5090684;28;20107;-68
2022/01/24 06:49:01;;;;;;;21.83;9.23;;;;;;;;;;5092453;28;20103;-71
2022/01/24 06:51:27;;;;;;;13.88;7.43;;;;;;;;;;5092350;28;20451;-70
2022/01/24 06:53:53;;;;;;;16.27;7.75;;;;;;;;;;5091909;28;20032;-70
2022/01/24 06:56:19;;;;;;;13.18;6.90;;;;;;;;;;5091677;28;20024;-68
2022/01/24 06:58:45;;;;;;;23.02;7.28;;;;;;;;;;5091057;28;20040;-68
2022/01/24 07:01:11;;;;;;;16.02;6.90;;;;;;;;;;5092015;28;20035;-73
2022/01/24 07:03:36;;;;;;;18.20;7.07;;;;;;;;;;5092137;28;20470;-69
2022/01/24 07:06:02;;;;;;;19.40;8.25;;;;;;;;;;5091910;28;20124;-70
2022/01/24 07:08:29;;;;;;;18.20;8.40;;;;;;;;;;5093133;28;20325;-71
2022/01/24 07:10:54;;;;;;;12.57;6.68;;;;;;;;;;5093856;28;20039;-69
2022/01/24 07:13:22;;;;;;;13.23;7.03;;;;;;;;;;5093478;28;20032;-70
2022/01/24 07:16:00;;;;;;;11.43;6.93;;;;;;;;;;5092860;28;20028;-70
2022/01/24 07:20:53;;;;;;;12.80;7.07;;;;;;;;;;5092367;28;20031;-78
2022/01/24 07:23:18;;;;;;;13.93;6.75;;;;;;;;;;5091338;28;20081;-68
2022/01/24 07:25:44;;;;;;;10.32;6.63;;;;;;;;;;5091217;28;20028;-69
2022/01/24 07:28:11;;;;;;;10.73;5.80;;;;;;;;;;5093427;28;20394;-68
2022/01/24 07:30:37;;;;;;;11.07;5.70;;;;;;;;;;5095515;28;20039;-69
2022/01/24 07:33:03;;;;;;;11.10;5.53;;;;;;;;;;5096151;28;20032;-69
2022/01/24 07:35:29;;;;;;;8.88;5.32;;;;;;;;;;5095727;28;20051;-72
2022/01/24 07:37:55;;;;;;;12.63;5.97;;;;;;;;;;5095181;28;20036;-68
2022/01/24 07:40:22;;;;;;;8.13;5.65;;;;;;;;;;5095875;28;20069;-67
2022/01/24 07:42:58;;;;;;;10.93;5.38;;;;;;;;;;5095444;28;20071;-69
2022/01/24 07:45:25;;;;;;;7.18;4.38;;;;;;;;;;5095620;28;20044;-67
2022/01/24 07:47:51;;;;;;;9.82;4.53;;;;;;;;;;5095005;28;20081;-68
2022/01/24 07:50:21;;;;;;;6.13;3.63;;;;;;;;;;5094190;28;20217;-69
2022/01/24 07:52:47;;;;;;;8.90;6.00;;;;;;;;;;5095107;28;20085;-71
2022/01/24 07:55:13;;;;;;;10.10;4.28;;;;;;;;;;5095378;28;20157;-72
2022/01/24 07:57:39;;;;;;;7.40;3.95;;;;;;;;;;5095187;28;20124;-66
2022/01/24 08:00:07;;;;;;;5.70;4.00;;;;;;;;;;5086815;28;20555;-73
2022/01/24 08:02:38;;;;;;;8.35;4.60;;;;;;;;;;5074994;28;20063;-68
2022/01/24 08:05:06;;;;;;;17.83;5.20;;;;;;;;;;5075508;28;20147;-68
2022/01/24 08:07:32;;;;;;;8.38;4.10;;;;;;;;;;5075000;28;20033;-70
2022/01/24 08:09:58;;;;;;;6.55;4.10;;;;;;;;;;5073953;28;20037;-76
2022/01/24 08:12:24;;;;;;;7.47;4.20;;;;;;;;;;5074197;28;20029;-77
2022/01/24 08:14:50;;;;;;;7.63;4.22;;;;;;;;;;5074696;28;20291;-71
2022/01/24 08:17:18;;;;;;;8.88;4.45;;;;;;;;;;5074796;28;20127;-68
2022/01/24 08:19:45;;;;;;;7.10;4.95;;;;;;;;;;5075066;28;20182;-70
2022/01/24 08:22:12;;;;;;;6.80;2.95;;;;;;;;;;5074406;28;20021;-67
2022/01/24 08:24:39;;;;;;;8.48;4.50;;;;;;;;;;5074962;28;20037;-66
2022/01/24 08:27:05;;;;;;;6.18;3.67;;;;;;;;;;5081782;28;20378;-69
2022/01/24 08:29:31;;;;;;;7.70;5.07;;;;;;;;;;5094564;28;20139;-72
2022/01/24 08:31:57;;;;;;;6.43;4.07;;;;;;;;;;5095399;28;20040;-67
2022/01/24 08:34:23;;;;;;;6.65;3.95;;;;;;;;;;5077834;28;20041;-71
2022/01/24 08:36:49;;;;;;;7.70;4.30;;;;;;;;;;5079338;28;20052;-70
2022/01/24 08:39:14;;;;;;;6.05;3.70;;;;;;;;;;5092693;28;20120;-67
2022/01/24 08:46:48;;;;;;;8.02;3.80;;;;;;;;;;5094718;28;20020;-69
2022/01/24 08:49:14;;;;;;;7.03;4.13;;;;;;;;;;5094375;28;20024;-69
2022/01/24 08:51:40;;;;;;;6.20;4.10;;;;;;;;;;5094303;28;20052;-69
2022/01/24 08:54:07;;;;;;;6.70;4.40;;;;;;;;;;5096766;28;20070;-70
2022/01/24 08:56:34;;;;;;;8.93;4.45;;;;;;;;;;5093863;28;20024;-67
2022/01/24 08:59:01;;;;;;;7.10;3.58;;;;;;;;;;5093956;28;20024;-65
2022/01/24 09:01:27;;;;;;;8.77;4.30;;;;;;;;;;5093750;28;20028;-65
2022/01/24 09:03:53;;;;;;;8.02;4.25;;;;;;;;;;5093761;28;20060;-68
2022/01/24 09:06:21;;;;;;;7.18;3.45;;;;;;;;;;5094088;28;20089;-66
2022/01/24 09:08:55;;;;;;;5.38;3.00;;;;;;;;;;5088257;28;20387;-64
2022/01/24 09:11:23;;;;;;;6.95;3.90;;;;;;;;;;5074143;28;20091;-67
2022/01/24 09:13:50;;;;;;;6.03;3.45;;;;;;;;;;5074043;28;20056;-67
2022/01/24 09:16:16;;;;;;;7.15;3.47;;;;;;;;;;5073887;28;20488;-68
2022/01/24 09:18:42;;;;;;;7.65;4.30;;;;;;;;;;5073869;28;20163;-67
2022/01/24 09:21:07;;;;;;;5.35;3.50;;;;;;;;;;5073460;28;20477;-67
2022/01/24 09:23:33;;;;;;;4.68;3.00;;;;;;;;;;5073371;28;20032;-67
2022/01/24 09:25:59;;;;;;;5.70;4.53;;;;;;;;;;5073599;28;20060;-66
2022/01/24 09:28:25;;;;;;;7.45;3.45;;;;;;;;;;5073290;28;20044;-68
2022/01/24 09:30:51;;;;;;;5.57;2.85;;;;;;;;;;5073148;28;20032;-70
2022/01/24 09:33:17;;;;;;;7.00;3.53;;;;;;;;;;5072820;28;20044;-67
2022/01/24 09:35:44;;;;;;;10.35;4.60;;;;;;;;;;5072866;28;20077;-68
2022/01/24 09:38:11;;;;;;;6.75;3.90;;;;;;;;;;5073220;28;20020;-67
2022/01/24 09:40:38;;;;;;;6.93;4.82;;;;;;;;;;5073110;28;20047;-67
2022/01/24 09:43:05;;;;;;;7.55;4.05;;;;;;;;;;5073198;28;20027;-68
2022/01/24 09:45:31;;;;;;;6.70;3.50;;;;;;;;;;5072903;28;20082;-69
2022/01/24 09:47:58;;;;;;;11.15;3.10;;;;;;;;;;5073002;28;20348;-66
2022/01/24 09:50:24;;;;;;;5.82;3.58;;;;;;;;;;5072652;28;20536;-69
2022/01/24 09:52:50;;;;;;;6.45;3.15;;;;;;;;;;5072832;28;20479;-72
2022/01/24 09:55:21;;;;;;;8.13;4.55;;;;;;;;;;5073218;28;20052;-71
2022/01/24 09:57:48;;;;;;;8.48;4.50;;;;;;;;;;5072636;28;20040;-72
2022/01/24 10:00:17;;;;;;;12.30;4.22;;;;;;;;;;5072398;28;20052;-76
2022/01/24 10:02:46;;;;;;;6.95;4.78;;;;;;;;;;5072546;28;20033;-70
2022/01/24 10:05:23;;;;;;;6.93;3.80;;;;;;;;;;5072792;28;20024;-69
2022/01/24 10:07:58;;;;;;;14.43;5.22;;;;;;;;;;5072132;28;20232;-67
2022/01/24 10:10:41;;;;;;;5.93;3.20;;;;;;;;;;5072008;28;20471;-75
2022/01/24 10:16:25;;;;;;;5.40;3.55;;;;;;;;;;5051106;28;20437;-68
2022/01/24 10:19:05;;;;;;;6.68;4.15;;;;;;;;;;5072228;28;20062;-71
2022/01/24 10:21:41;;;;;;;9.55;4.72;;;;;;;;;;5072269;28;20033;-68
2022/01/24 10:24:08;;;;;;;8.70;3.95;;;;;;;;;;5072217;28;20032;-71
2022/01/24 10:26:33;;;;;;;6.50;4.95;;;;;;;;;;5072375;28;20043;-70
2022/01/24 10:28:59;;;;;;;7.55;4.15;;;;;;;;;;5071450;28;20048;-68
2022/01/24 10:31:29;;;;;;;9.73;4.95;;;;;;;;;;5071896;28;20059;-69
2022/01/24 10:34:12;;;;;;;7.28;5.03;;;;;;;;;;5070754;28;20487;-67
2022/01/24 10:36:50;;;;;;;9.60;5.37;;;;;;;;;;5071596;28;20068;-70
2022/01/24 10:39:43;;;;;;;12.50;5.18;;;;;;;;;;5072060;28;20036;-70
2022/01/24 10:42:59;;;;;;;5.03;3.00;;;;;;;;;;5071969;28;20056;-68
2022/01/24 10:45:15;;;;;;;8.70;3.85;;;;;;;;;;5065980;28;20048;-68
2022/01/24 10:47:46;;;;;;;5.05;2.78;;;;;;;;;;5071849;28;20107;-67
2022/01/24 10:50:19;;;;;;;8.75;5.22;;;;;;;;;;5071688;28;20075;-70
2022/01/24 10:52:45;;;;;;;7.75;4.07;;;;;;;;;;5071943;28;20036;-70
2022/01/24 10:55:15;;;;;;;7.43;3.20;;;;;;;;;;5072020;28;20029;-69
2022/01/24 10:57:43;;;;;;;8.43;5.18;;;;;;;;;;5070526;28;20035;-70
2022/01/24 11:00:14;;;;;;;7.65;4.68;;;;;;;;;;5071919;28;20035;-68
2022/01/24 11:02:42;;;;;;;6.22;4.35;;;;;;;;;;5070977;28;20107;-70
2022/01/24 11:05:12;;;;;;;8.35;3.95;;;;;;;;;;5070415;28;20024;-68
2022/01/24 11:07:58;;;;;;;6.13;3.67;;;;;;;;;;5071702;28;20120;-78
2022/01/24 11:10:29;;;;;;;4.50;2.42;;;;;;;;;;5072402;28;20483;-68
2022/01/24 11:12:57;;;;;;;13.10;6.30;;;;;;;;;;5070487;28;20052;-71
2022/01/24 11:15:25;;;;;;;10.45;5.78;;;;;;;;;;5069673;28;20028;-69
2022/01/24 11:17:53;;;;;;;12.93;5.40;;;;;;;;;;5070549;28;20035;-67
2022/01/24 11:20:23;;;;;;;10.60;5.35;;;;;;;;;;5070754;28;20071;-66
2022/01/24 11:22:58;;;;;;;9.30;4.65;;;;;;;;;;5071925;28;20388;-67
2022/01/24 11:25:26;;;;;;;9.88;5.05;;;;;;;;;;5071959;28;20039;-68
2022/01/24 11:27:52;;;;;;;9.27;5.20;;;;;;;;;;5071598;28;20036;-69
2022/01/24 11:30:23;;;;;;;13.50;4.95;;;;;;;;;;5071818;28;20207;-69
2022/01/24 11:33:09;;;;;;;14.20;4.85;;;;;;;;;;5071651;28;20144;-68
2022/01/24 11:35:41;;;;;;;12.57;3.40;;;;;;;;;;5072127;28;20222;-68
2022/01/24 11:38:28;;;;;;;7.68;4.60;;;;;;;;;;5072001;28;20029;-68
2022/01/24 11:41:06;;;;;;;7.65;4.10;;;;;;;;;;5071931;28;20036;-70
2022/01/24 11:43:36;;;;;;;4.45;2.53;;;;;;;;;;5070739;28;20518;-69
2022/01/24 11:46:25;;;;;;;6.25;3.67;;;;;;;;;;5071482;28;20017;-72
2022/01/24 11:49:06;;;;;;;11.55;4.43;;;;;;;;;;5071476;28;20032;-69
2022/01/24 11:51:34;;;;;;;7.70;3.83;;;;;;;;;;5071936;28;20051;-70
2022/01/24 11:54:01;;;;;;;7.60;3.58;;;;;;;;;;5072048;28;20024;-77
2022/01/24 11:56:31;;;;;;;7.53;2.97;;;;;;;;;;5071690;28;20442;-77
2022/01/24 11:59:22;;;;;;;7.57;3.28;;;;;;;;;;5071603;28;20028;-67
2022/01/24 12:02:04;;;;;;;10.10;4.03;;;;;;;;;;5071535;28;20035;-71
2022/01/24 12:04:52;;;;;;;12.18;6.40;;;;;;;;;;5071232;28;20082;-71
2022/01/24 12:07:25;;;;;;;7.95;4.43;;;;;;;;;;5072531;28;20391;-72
2022/01/24 12:09:52;;;;;;;6.47;3.08;;;;;;;;;;5071386;28;20090;-69
2022/01/24 12:12:46;;;;;;;9.57;4.72;;;;;;;;;;5071688;28;20024;-76
2022/01/24 12:15:38;;;;;;;8.05;4.80;;;;;;;;;;5074018;28;20500;-68
2022/01/24 12:18:22;;;;;;;11.45;5.78;;;;;;;;;;5080784;28;20123;-76
2022/01/24 12:21:07;;;;;;;7.95;4.53;;;;;;;;;;5095852;28;20051;-67
2022/01/24 12:23:40;;;;;;;9.07;5.55;;;;;;;;;;5095520;28;20028;-72
2022/01/24 12:26:25;;;;;;;9.15;5.10;;;;;;;;;;5094935;28;20533;-71
2022/01/24 12:29:00;;;;;;;12.93;6.00;;;;;;;;;;5085694;28;20131;-69
2022/01/24 12:31:42;;;;;;;6.60;3.88;;;;;;;;;;5093025;28;20043;-73
2022/01/24 12:34:27;;;;;;;7.93;4.93;;;;;;;;;;5094061;28;20482;-75
2022/01/24 12:37:03;;;;;;;11.68;5.07;;;;;;;;;;5094797;28;20108;-72
2022/01/24 12:39:33;;;;;;;7.65;3.78;;;;;;;;;;5094480;28;20028;-76
2022/01/24 12:42:13;;;;;;;9.60;4.60;;;;;;;;;;5090993;28;20024;-78
2022/01/24 12:47:16;;;;;;;9.48;6.20;;;;;;;;;;5074049;28;20536;-69
2022/01/24 12:49:45;;;;;;;9.20;4.35;;;;;;;;;;5073901;28;20094;-66
2022/01/24 12:52:12;;;;;;;11.20;5.43;;;;;;;;;;5074146;28;20115;-69
2022/01/24 12:54:48;;;;;;;8.32;3.75;;;;;;;;;;5074401;28;20143;-68
2022/01/24 12:57:16;;;;;;;7.90;4.32;;;;;;;;;;5073817;28;20033;-67
2022/01/24 12:59:54;;;;;;;7.55;4.85;;;;;;;;;;5074017;28;20021;-68
2022/01/24 13:02:26;;;;;;;10.57;5.10;;;;;;;;;;5074014;28;20470;-68
2022/01/24 13:04:58;;;;;;;6.68;3.90;;;;;;;;;;5074463;28;20172;-67
2022/01/24 13:07:24;;;;;;;7.35;4.40;;;;;;;;;;5083065;28;20035;-68
2022/01/24 13:09:49;;;;;;;9.35;5.40;;;;;;;;;;5079693;28;20025;-68
2022/01/24 13:12:16;;;;;;;8.32;5.32;;;;;;;;;;5074122;28;20498;-66
2022/01/24 13:25:28;;;;;;;8.60;4.50;;;;;;;;;;5078150;28;20028;-68
2022/01/24 13:28:05;;;;;;;6.50;4.60;;;;;;;;;;5086994;28;20044;-70
2022/01/24 13:30:37;;;;;;;6.20;4.40;;;;;;;;;;5092594;28;20067;-68
2022/01/24 13:33:08;;;;;;;7.47;4.00;;;;;;;;;;5092223;28;20839;-70
2022/01/24 13:35:39;;;;;;;7.78;5.20;;;;;;;;;;5090064;28;20036;-71
2022/01/24 13:38:10;;;;;;;7.63;4.30;;;;;;;;;;5077369;28;20021;-70
2022/01/24 13:41:01;;;;;;;9.38;6.30;;;;;;;;;;5085257;28;20078;-71
2022/01/24 13:43:40;;;;;;;10.45;6.32;;;;;;;;;;5075400;28;20506;-69
2022/01/24 13:46:08;;;;;;;8.70;6.00;;;;;;;;;;5086885;28;20122;-71
2022/01/24 13:48:57;;;;;;;9.05;5.70;;;;;;;;;;5077311;28;20039;-68
2022/01/24 13:51:34;;;;;;;10.57;6.05;;;;;;;;;;5076097;28;20040;-69
2022/01/24 13:54:01;;;;;;;9.32;6.03;;;;;;;;;;5072810;28;20037;-70
2022/01/24 13:56:28;;;;;;;9.32;5.35;;;;;;;;;;5090749;28;20097;-68
2022/01/24 13:59:05;;;;;;;9.68;5.53;;;;;;;;;;5093455;28;20039;-69
2022/01/24 14:01:32;;;;;;;11.52;6.97;;;;;;;;;;5093526;28;20031;-71
2022/01/24 14:03:59;;;;;;;7.88;5.53;;;;;;;;;;5093581;28;20023;-74
2022/01/24 14:06:29;;;;;;;7.18;4.70;;;;;;;;;;5093165;28;20056;-72
2022/01/24 14:09:08;;;;;;;7.32;4.22;;;;;;;;;;5093438;28;20035;-73
2022/01/24 14:11:39;;;;;;;9.52;6.18;;;;;;;;;;5093449;28;20436;-74
2022/01/24 14:14:06;;;;;;;9.43;6.78;;;;;;;;;;5093208;28;20093;-74
2022/01/24 14:17:06;;;;;;;8.80;5.70;;;;;;;;;;5093129;28;20107;-74
2022/01/24 14:19:35;;;;;;;7.13;4.00;;;;;;;;;;5092847;28;20094;-73
2022/01/24 14:22:05;;;;;;;11.60;6.38;;;;;;;;;;5093420;28;20474;-77
2022/01/24 14:24:51;;;;;;;6.63;5.00;;;;;;;;;;5093060;28;20044;-76
2022/01/24 14:27:39;;;;;;;7.03;3.80;;;;;;;;;;5111772;28;20120;-76
2022/01/24 14:30:21;;;;;;;6.72;4.63;;;;;;;;;;5112872;28;20063;-72
2022/01/24 14:33:12;;;;;;;9.57;5.57;;;;;;;;;;5113863;28;20501;-75
2022/01/24 14:36:02;;;;;;;9.77;3.97;;;;;;;;;;5114055;28;20096;-71
2022/01/24 14:39:09;;;;;;;9.20;5.68;;;;;;;;;;5113542;28;20126;-72
2022/01/24 14:41:45;;;;;;;8.43;5.00;;;;;;;;;;5110383;28;20377;-66
2022/01/24 14:46:56;;;;;;;10.05;6.10;;;;;;;;;;5113471;28;20035;-68
2022/01/24 14:49:27;;;;;;;13.35;6.28;;;;;;;;;;5113117;28;20469;-72
2022/01/24 14:51:58;;;;;;;12.10;4.90;;;;;;;;;;5113108;28;20528;-70
2022/01/24 14:54:25;;;;;;;10.75;6.32;;;;;;;;;;5113446;28;20039;-67
2022/01/24 14:56:54;;;;;;;11.18;5.75;;;;;;;;;;5113329;28;20508;-66
2022/01/24 14:59:21;;;;;;;12.20;5.68;;;;;;;;;;5113382;28;20115;-66
2022/01/24 15:01:48;;;;;;;11.25;6.82;;;;;;;;;;5114890;28;20085;-67
2022/01/24 15:04:14;;;;;;;9.02;6.00;;;;;;;;;;5114014;28;20371;-68
2022/01/24 15:06:39;;;;;;;9.30;5.97;;;;;;;;;;5099158;28;20031;-71
2022/01/24 15:09:15;;;;;;;9.50;6.38;;;;;;;;;;5091268;28;20386;-69
2022/01/24 15:11:42;;;;;;;12.40;7.18;;;;;;;;;;5092577;28;20115;-71
2022/01/24 15:14:24;;;;;;;11.98;6.53;;;;;;;;;;5091863;28;20055;-72
2022/01/24 15:27:41;;;;;;;8.70;5.28;;;;;;;;;;5092167;28;20082;-68
2022/01/24 15:30:08;;;;;;;11.02;6.85;;;;;;;;;;5092504;28;20032;-68
2022/01/24 15:32:34;;;;;;;12.25;6.03;;;;;;;;;;5092128;28;20530;-69
2022/01/24 15:35:00;;;;;;;13.80;6.22;;;;;;;;;;5092047;28;20034;-68
2022/01/24 15:37:26;;;;;;;12.68;5.82;;;;;;;;;;5090509;28;20107;-70
2022/01/24 15:39:54;;;;;;;11.63;7.20;;;;;;;;;;5091391;28;20035;-69
2022/01/24 15:42:35;;;;;;;9.23;5.90;;;;;;;;;;5092292;28;20032;-69
2022/01/24 15:47:44;;;;;;;8.65;4.15;;;;;;;;;;5090822;28;20123;-69
2022/01/24 15:50:15;;;;;;;9.60;6.80;;;;;;;;;;5083145;28;20028;-67
2022/01/24 15:52:41;;;;;;;10.82;7.97;;;;;;;;;;5079612;28;20116;-67
2022/01/24 15:55:10;;;;;;;12.82;7.35;;;;;;;;;;5075032;28;20060;-66
2022/01/24 15:57:44;;;;;;;9.52;5.05;;;;;;;;;;5094234;28;20040;-72
2022/01/24 16:00:10;;;;;;;;;;;;;;;;;;5095643;28;20107;-66
2022/01/24 16:02:42;;;;;;;13.70;8.20;;;;;;;;;;5095130;28;19915;-67
2022/01/24 16:05:10;;;;;;;9.95;5.68;;;;;;;;;;5093815;28;20052;-67
2022/01/24 16:07:38;;;;;;;12.50;8.20;;;;;;;;;;5093098;28;20056;-75
2022/01/24 16:10:05;;;;;;;10.80;7.22;;;;;;;;;;5090203;28;20036;-69
2022/01/24 16:12:31;;;;;;;11.07;6.53;;;;;;;;;;5093769;28;20092;-67
2022/01/24 16:14:57;;;;;;;14.82;7.45;;;;;;;;;;5082301;28;20040;-67
2022/01/24 16:17:23;;;;;;;12.05;6.43;;;;;;;;;;5084210;28;20104;-70
2022/01/24 16:19:53;;;;;;;12.07;7.43;;;;;;;;;;5089687;28;20109;-70
2022/01/24 16:22:44;;;;;;;10.15;5.40;;;;;;;;;;5092661;28;20102;-62
2022/01/24 16:28:15;;;;;;;13.32;8.00;;;;;;;;;;5085391;28;20048;-64
2022/01/24 16:30:43;;;;;;;12.02;7.07;;;;;;;;;;5091264;28;20514;-65
2022/01/24 16:33:09;;;;;;;11.85;5.53;;;;;;;;;;5091947;28;20073;-64
2022/01/24 16:35:36;;;;;;;12.20;6.97;;;;;;;;;;5092861;28;20044;-64
2022/01/24 16:38:03;;;;;;;17.33;7.45;;;;;;;;;;5094149;28;20043;-65
2022/01/24 16:40:33;;;;;;;11.43;6.63;;;;;;;;;;5094340;28;20795;-65
2022/01/24 16:48:44;;;;;;;11.90;7.40;;;;;;;;;;5092449;28;20036;-65
2022/01/24 16:51:13;;;;;;;11.98;6.07;;;;;;;;;;5092592;28;20032;-63
2022/01/24 16:53:42;;;;;;;10.80;6.47;;;;;;;;;;5087057;28;20078;-68
2022/01/24 16:56:09;;;;;;;11.40;6.13;;;;;;;;;;5073978;28;20377;-67
2022/01/24 16:58:35;;;;;;;10.50;6.50;;;;;;;;;;5065337;28;20055;-66
2022/01/24 17:01:02;;;;;;;16.60;9.13;;;;;;;;;;5071100;28;20028;-63
2022/01/24 17:03:31;;;;;;;13.15;7.97;;;;;;;;;;5072022;28;20028;-63
2022/01/24 17:05:57;;;;;;;10.93;6.50;;;;;;;;;;5071355;28;20089;-63
2022/01/24 17:08:24;;;;;;;13.60;7.45;;;;;;;;;;5071552;28;20384;-65
2022/01/24 17:10:52;;;;;;;13.82;8.02;;;;;;;;;;5071770;28;20032;-66
2022/01/24 17:13:18;;;;;;;12.43;6.53;;;;;;;;;;5071439;28;20024;-63
2022/01/24 17:15:47;;;;;;;8.77;5.15;;;;;;;;;;5065192;28;20025;-63
2022/01/24 17:18:15;;;;;;;10.88;6.55;;;;;;;;;;5050996;28;20083;-65
2022/01/24 17:20:41;;;;;;;12.13;6.95;;;;;;;;;;5051487;28;20394;-65
2022/01/24 17:23:07;;;;;;;13.15;7.57;;;;;;;;;;5065338;28;20035;-63